Time;durP1;ratioP1;P1;durP2;ratioP2;P2;SDS_P1;SDS_P2;PMS_P1;PMS_P2;Temp;Humidity;BMP_temperature;BMP_pressure;BME280_temperature;BME280_humidity;BME280_pressure;Samples;Min_cycle;Max_cycle;Signal;HPM_P1;HPM_P2
2022/01/16 00:00:25;;;;;;;0.00;0.00;;;;;;;;;;5073556;28;20606;-74
2022/01/16 00:05:42;;;;;;;0.00;0.00;;;;;;;;;;5073352;28;20219;-72
2022/01/16 00:08:11;;;;;;;0.00;0.00;;;;;;;;;;5073344;28;20224;-72
2022/01/16 00:10:40;;;;;;;0.00;0.00;;;;;;;;;;5073263;28;20273;-73
2022/01/16 00:13:08;;;;;;;0.00;0.00;;;;;;;;;;5072671;28;20199;-74
2022/01/16 00:15:37;;;;;;;0.00;0.00;;;;;;;;;;5053581;28;20204;-73
2022/01/16 00:18:16;;;;;;;0.00;0.00;;;;;;;;;;5053304;28;20223;-74
2022/01/16 00:20:45;;;;;;;0.00;0.00;;;;;;;;;;5065391;28;20258;-71
2022/01/16 00:23:21;;;;;;;0.00;0.00;;;;;;;;;;5073095;28;20235;-73
2022/01/16 00:25:50;;;;;;;0.00;0.00;;;;;;;;;;5073253;28;20264;-74
2022/01/16 00:28:19;;;;;;;0.00;0.00;;;;;;;;;;5072953;28;20281;-72
2022/01/16 00:30:47;;;;;;;0.00;0.00;;;;;;;;;;5073135;28;20253;-74
2022/01/16 00:33:16;;;;;;;0.00;0.00;;;;;;;;;;5072912;28;20237;-73
2022/01/16 00:35:46;;;;;;;0.00;0.00;;;;;;;;;;5073196;28;20265;-74
2022/01/16 00:38:15;;;;;;;0.00;0.00;;;;;;;;;;5072736;28;20230;-73
2022/01/16 00:40:43;;;;;;;0.00;0.00;;;;;;;;;;5072952;28;20208;-71
2022/01/16 00:43:13;;;;;;;0.00;0.00;;;;;;;;;;5072959;28;20679;-73
2022/01/16 00:45:43;;;;;;;0.00;0.00;;;;;;;;;;5072794;28;20212;-73
2022/01/16 00:48:11;;;;;;;0.00;0.00;;;;;;;;;;5071787;28;20220;-73
2022/01/16 00:50:40;;;;;;;0.00;0.00;;;;;;;;;;5072338;28;20253;-73
2022/01/16 00:53:09;;;;;;;0.00;0.00;;;;;;;;;;5072894;28;20206;-74
2022/01/16 00:55:38;;;;;;;0.00;0.00;;;;;;;;;;5072319;28;20207;-73
2022/01/16 00:58:07;;;;;;;0.00;0.00;;;;;;;;;;5072939;28;20224;-72
2022/01/16 01:00:35;;;;;;;0.00;0.00;;;;;;;;;;5072984;28;20253;-74
2022/01/16 01:03:05;;;;;;;0.00;0.00;;;;;;;;;;5072717;28;20232;-73
2022/01/16 01:05:36;;;;;;;0.00;0.00;;;;;;;;;;5072835;28;20572;-75
2022/01/16 01:08:05;;;;;;;0.00;0.00;;;;;;;;;;5072643;28;20273;-73
2022/01/16 01:10:37;;;;;;;0.00;0.00;;;;;;;;;;5072921;28;20214;-74
2022/01/16 01:13:11;;;;;;;0.00;0.00;;;;;;;;;;5072657;28;20249;-74
2022/01/16 01:15:45;;;;;;;0.00;0.00;;;;;;;;;;5064541;28;20200;-75
2022/01/16 01:18:14;;;;;;;0.00;0.00;;;;;;;;;;5072784;28;20228;-74
2022/01/16 01:20:44;;;;;;;0.00;0.00;;;;;;;;;;5072330;28;20201;-72
2022/01/16 01:23:12;;;;;;;0.00;0.00;;;;;;;;;;5072430;28;20224;-71
2022/01/16 01:25:42;;;;;;;0.00;0.00;;;;;;;;;;5075489;28;20254;-72
2022/01/16 01:28:11;;;;;;;0.00;0.00;;;;;;;;;;5076285;28;20224;-72
2022/01/16 01:30:41;;;;;;;0.00;0.00;;;;;;;;;;5055017;28;20570;-73
2022/01/16 01:33:13;;;;;;;0.00;0.00;;;;;;;;;;5055729;28;20206;-74
2022/01/16 01:35:41;;;;;;;0.00;0.00;;;;;;;;;;5055831;28;20204;-75
2022/01/16 01:38:10;;;;;;;0.00;0.00;;;;;;;;;;5069212;28;20253;-73
2022/01/16 01:40:40;;;;;;;0.00;0.00;;;;;;;;;;5075483;28;20199;-73
2022/01/16 01:51:31;;;;;;;0.00;0.00;;;;;;;;;;5075852;28;20205;-73
2022/01/16 01:54:00;;;;;;;0.00;0.00;;;;;;;;;;5075424;28;20708;-73
2022/01/16 01:56:29;;;;;;;0.00;0.00;;;;;;;;;;5074691;28;20686;-73
2022/01/16 01:59:00;;;;;;;0.00;0.00;;;;;;;;;;5075364;28;20726;-73
2022/01/16 02:01:29;;;;;;;0.00;0.00;;;;;;;;;;5075062;28;20219;-72
2022/01/16 02:03:58;;;;;;;0.00;0.00;;;;;;;;;;5075166;28;20219;-74
2022/01/16 02:06:27;;;;;;;0.00;0.00;;;;;;;;;;5075429;28;20204;-73
2022/01/16 02:08:57;;;;;;;0.00;0.00;;;;;;;;;;5075121;28;20224;-75
2022/01/16 02:11:28;;;;;;;0.00;0.00;;;;;;;;;;5075211;28;20496;-75
2022/01/16 02:13:58;;;;;;;0.00;0.00;;;;;;;;;;5075387;28;20234;-73
2022/01/16 02:35:48;;;;;;;0.00;0.00;;;;;;;;;;5073226;28;20593;-72
2022/01/16 02:38:17;;;;;;;0.00;0.00;;;;;;;;;;5074842;28;20222;-73
2022/01/16 02:40:49;;;;;;;0.00;0.00;;;;;;;;;;5070141;28;20198;-75
2022/01/16 02:43:22;;;;;;;0.00;0.00;;;;;;;;;;5074216;28;20222;-76
2022/01/16 02:46:08;;;;;;;0.00;0.00;;;;;;;;;;5054630;28;20212;-72
2022/01/16 02:48:37;;;;;;;0.00;0.00;;;;;;;;;;5054324;28;20220;-74
2022/01/16 02:51:05;;;;;;;0.00;0.00;;;;;;;;;;5054603;28;20265;-73
2022/01/16 02:53:35;;;;;;;0.00;0.00;;;;;;;;;;5067479;28;20711;-71
2022/01/16 02:56:08;;;;;;;0.00;0.00;;;;;;;;;;5074321;28;20297;-73
2022/01/16 02:58:37;;;;;;;0.00;0.00;;;;;;;;;;5074390;28;20745;-73
2022/01/16 03:01:05;;;;;;;0.00;0.00;;;;;;;;;;5074214;28;20260;-74
2022/01/16 03:03:34;;;;;;;0.00;0.00;;;;;;;;;;5073953;28;20680;-73
2022/01/16 03:06:02;;;;;;;0.00;0.00;;;;;;;;;;5073808;28;20195;-73
2022/01/16 03:08:31;;;;;;;0.00;0.00;;;;;;;;;;5074192;28;20228;-75
2022/01/16 03:11:15;;;;;;;0.00;0.00;;;;;;;;;;5074508;28;20282;-73
2022/01/16 03:13:47;;;;;;;0.00;0.00;;;;;;;;;;5074052;28;20194;-71
2022/01/16 03:16:16;;;;;;;0.00;0.00;;;;;;;;;;5074300;28;20205;-74
2022/01/16 03:24:16;;;;;;;0.00;0.00;;;;;;;;;;5068683;28;20210;-71
2022/01/16 03:26:46;;;;;;;0.00;0.00;;;;;;;;;;5074044;28;20208;-75
2022/01/16 03:29:14;;;;;;;0.00;0.00;;;;;;;;;;5074000;28;20203;-72
2022/01/16 03:31:43;;;;;;;0.00;0.00;;;;;;;;;;5073709;28;20199;-73
2022/01/16 03:34:11;;;;;;;0.00;0.00;;;;;;;;;;5073643;28;20561;-71
2022/01/16 03:36:40;;;;;;;0.00;0.00;;;;;;;;;;5073386;28;20202;-73
2022/01/16 03:39:08;;;;;;;0.00;0.00;;;;;;;;;;5073565;28;20207;-72
2022/01/16 03:41:37;;;;;;;0.00;0.00;;;;;;;;;;5073476;28;20721;-72
2022/01/16 03:44:07;;;;;;;0.00;0.00;;;;;;;;;;5065691;28;20580;-74
2022/01/16 03:46:38;;;;;;;0.00;0.00;;;;;;;;;;5054338;28;20671;-73
2022/01/16 03:49:07;;;;;;;0.00;0.00;;;;;;;;;;5073483;28;20253;-72
2022/01/16 03:51:37;;;;;;;0.00;0.00;;;;;;;;;;5073264;28;20202;-72
2022/01/16 03:54:06;;;;;;;0.00;0.00;;;;;;;;;;5073266;28;20221;-72
2022/01/16 03:56:34;;;;;;;0.00;0.00;;;;;;;;;;5073343;28;20203;-73
2022/01/16 03:59:03;;;;;;;0.00;0.00;;;;;;;;;;5073470;28;20199;-73
2022/01/16 04:01:32;;;;;;;0.00;0.00;;;;;;;;;;5073184;28;20202;-74
2022/01/16 04:04:01;;;;;;;0.00;0.00;;;;;;;;;;5073894;28;20257;-74
2022/01/16 04:06:29;;;;;;;0.00;0.00;;;;;;;;;;5073223;28;20260;-73
2022/01/16 04:08:58;;;;;;;0.00;0.00;;;;;;;;;;5073147;28;20226;-75
2022/01/16 04:11:27;;;;;;;0.00;0.00;;;;;;;;;;5073365;28;20198;-74
2022/01/16 04:14:04;;;;;;;0.00;0.00;;;;;;;;;;5073146;28;20245;-73
2022/01/16 04:16:34;;;;;;;0.00;0.00;;;;;;;;;;5073131;28;20194;-72
2022/01/16 04:19:03;;;;;;;0.00;0.00;;;;;;;;;;5073519;28;20217;-74
2022/01/16 04:21:31;;;;;;;0.00;0.00;;;;;;;;;;5073120;28;20666;-73
2022/01/16 04:23:59;;;;;;;0.00;0.00;;;;;;;;;;5073232;28;20236;-74
2022/01/16 04:26:28;;;;;;;0.00;0.00;;;;;;;;;;5073123;28;20678;-72
2022/01/16 04:28:57;;;;;;;0.00;0.00;;;;;;;;;;5072723;28;20592;-73
2022/01/16 04:31:25;;;;;;;0.00;0.00;;;;;;;;;;5073478;28;20603;-73
2022/01/16 04:33:55;;;;;;;0.00;0.00;;;;;;;;;;5073369;28;20198;-74
2022/01/16 04:36:24;;;;;;;0.00;0.00;;;;;;;;;;5072907;28;20207;-73
2022/01/16 04:38:52;;;;;;;0.00;0.00;;;;;;;;;;5072780;28;20273;-71
2022/01/16 04:44:08;;;;;;;0.00;0.00;;;;;;;;;;5072542;28;20261;-72
2022/01/16 04:46:36;;;;;;;0.00;0.00;;;;;;;;;;5072665;28;20680;-74
2022/01/16 04:49:06;;;;;;;0.00;0.00;;;;;;;;;;5073015;28;20203;-74
2022/01/16 04:51:35;;;;;;;0.00;0.00;;;;;;;;;;5072629;28;20194;-74
2022/01/16 04:54:03;;;;;;;0.00;0.00;;;;;;;;;;5072509;28;20601;-72
2022/01/16 04:56:31;;;;;;;0.00;0.00;;;;;;;;;;5070594;28;20198;-71
2022/01/16 04:59:00;;;;;;;0.00;0.00;;;;;;;;;;5074087;28;20587;-73
2022/01/16 05:01:28;;;;;;;0.00;0.00;;;;;;;;;;5076528;28;20679;-74
2022/01/16 05:03:57;;;;;;;0.00;0.00;;;;;;;;;;5076445;28;20219;-74
2022/01/16 05:06:26;;;;;;;0.00;0.00;;;;;;;;;;5076185;28;20199;-72
2022/01/16 05:08:55;;;;;;;0.00;0.00;;;;;;;;;;5076140;28;20229;-73
2022/01/16 05:11:25;;;;;;;0.00;0.00;;;;;;;;;;5076681;28;20612;-75
2022/01/16 05:16:41;;;;;;;0.00;0.00;;;;;;;;;;5076122;28;20666;-71
2022/01/16 05:19:11;;;;;;;0.00;0.00;;;;;;;;;;5075855;28;20231;-72
2022/01/16 05:21:42;;;;;;;0.00;0.00;;;;;;;;;;5075956;28;20257;-74
2022/01/16 05:24:11;;;;;;;0.00;0.00;;;;;;;;;;5076107;28;20214;-73
2022/01/16 05:26:41;;;;;;;0.00;0.00;;;;;;;;;;5076241;28;20248;-75
2022/01/16 05:29:10;;;;;;;0.00;0.00;;;;;;;;;;5076069;28;20258;-76
2022/01/16 05:31:44;;;;;;;0.00;0.00;;;;;;;;;;5075978;28;20208;-74
2022/01/16 05:34:13;;;;;;;0.00;0.00;;;;;;;;;;5075561;28;20692;-73
2022/01/16 05:36:43;;;;;;;0.00;0.00;;;;;;;;;;5076097;28;20206;-74
2022/01/16 05:39:11;;;;;;;0.00;0.00;;;;;;;;;;5076206;28;20294;-73
2022/01/16 05:41:40;;;;;;;0.00;0.00;;;;;;;;;;5075802;28;20199;-74
2022/01/16 05:44:08;;;;;;;0.00;0.00;;;;;;;;;;5075441;28;20226;-71
2022/01/16 05:46:37;;;;;;;0.00;0.00;;;;;;;;;;5075746;28;20199;-73
2022/01/16 05:49:05;;;;;;;0.00;0.00;;;;;;;;;;5075882;28;20206;-73
2022/01/16 05:51:34;;;;;;;0.00;0.00;;;;;;;;;;5075470;28;20724;-76
2022/01/16 05:54:03;;;;;;;0.00;0.00;;;;;;;;;;5075459;28;20203;-75
2022/01/16 05:56:32;;;;;;;0.00;0.00;;;;;;;;;;5075754;28;20203;-76
2022/01/16 05:59:00;;;;;;;0.00;0.00;;;;;;;;;;5075687;28;20204;-73
2022/01/16 06:01:29;;;;;;;0.00;0.00;;;;;;;;;;5075791;28;20662;-74
2022/01/16 06:03:57;;;;;;;0.00;0.00;;;;;;;;;;5075218;28;20610;-73
2022/01/16 06:06:26;;;;;;;0.00;0.00;;;;;;;;;;5075262;28;20207;-72
2022/01/16 06:08:54;;;;;;;0.00;0.00;;;;;;;;;;5074742;28;20759;-73
2022/01/16 06:11:27;;;;;;;0.00;0.00;;;;;;;;;;5074312;28;20625;-73
2022/01/16 06:13:56;;;;;;;0.00;0.00;;;;;;;;;;5075193;28;20253;-76
2022/01/16 06:16:24;;;;;;;0.00;0.00;;;;;;;;;;5075495;28;20328;-74
2022/01/16 06:18:54;;;;;;;0.00;0.00;;;;;;;;;;5075266;28;20222;-74
2022/01/16 06:21:22;;;;;;;0.00;0.00;;;;;;;;;;5075146;28;20211;-73
2022/01/16 06:23:50;;;;;;;0.00;0.00;;;;;;;;;;5074907;28;20203;-73
2022/01/16 06:26:19;;;;;;;0.00;0.00;;;;;;;;;;5075481;28;20227;-76
2022/01/16 06:28:49;;;;;;;0.00;0.00;;;;;;;;;;5074709;28;20218;-76
2022/01/16 06:31:17;;;;;;;0.00;0.00;;;;;;;;;;5075206;28;20204;-73
2022/01/16 06:33:46;;;;;;;0.00;0.00;;;;;;;;;;5075967;28;20206;-76
2022/01/16 06:36:14;;;;;;;0.00;0.00;;;;;;;;;;5074397;28;20658;-72
2022/01/16 06:38:42;;;;;;;0.00;0.00;;;;;;;;;;5074589;28;20218;-73
2022/01/16 06:41:11;;;;;;;0.00;0.00;;;;;;;;;;5074743;28;20252;-73
2022/01/16 06:43:39;;;;;;;0.00;0.00;;;;;;;;;;5074643;28;20630;-75
2022/01/16 06:46:09;;;;;;;0.00;0.00;;;;;;;;;;5074407;28;20592;-72
2022/01/16 06:48:40;;;;;;;0.00;0.00;;;;;;;;;;5074331;28;20309;-75
2022/01/16 06:51:09;;;;;;;0.00;0.00;;;;;;;;;;5074202;28;20205;-74
2022/01/16 06:53:37;;;;;;;0.00;0.00;;;;;;;;;;5074814;28;20199;-72
2022/01/16 06:56:05;;;;;;;0.00;0.00;;;;;;;;;;5074561;28;20195;-71
2022/01/16 06:58:34;;;;;;;0.00;0.00;;;;;;;;;;5074274;28;20224;-74
2022/01/16 07:01:02;;;;;;;0.00;0.00;;;;;;;;;;5074247;28;20203;-75
2022/01/16 07:03:32;;;;;;;0.00;0.00;;;;;;;;;;5078405;28;20672;-75
2022/01/16 07:06:01;;;;;;;0.00;0.00;;;;;;;;;;5094276;28;20225;-72
2022/01/16 07:08:30;;;;;;;0.00;0.00;;;;;;;;;;5093929;28;20690;-72
2022/01/16 07:10:59;;;;;;;0.00;0.00;;;;;;;;;;5084636;28;20199;-74
2022/01/16 07:13:28;;;;;;;0.00;0.00;;;;;;;;;;5073957;28;20198;-74
2022/01/16 07:15:57;;;;;;;0.00;0.00;;;;;;;;;;5073941;28;20664;-72
2022/01/16 07:18:26;;;;;;;0.00;0.00;;;;;;;;;;5073562;28;20339;-74
2022/01/16 07:20:56;;;;;;;0.00;0.00;;;;;;;;;;5074480;28;20200;-73
2022/01/16 07:23:24;;;;;;;0.00;0.00;;;;;;;;;;5074137;28;20562;-73
2022/01/16 07:25:53;;;;;;;0.00;0.00;;;;;;;;;;5073761;28;20280;-73
2022/01/16 07:28:22;;;;;;;0.00;0.00;;;;;;;;;;5081927;28;20635;-74
2022/01/16 07:30:50;;;;;;;0.00;0.00;;;;;;;;;;5082503;28;20642;-72
2022/01/16 07:33:18;;;;;;;0.00;0.00;;;;;;;;;;5074100;28;20227;-72
2022/01/16 07:35:47;;;;;;;0.00;0.00;;;;;;;;;;5073301;28;20198;-75
2022/01/16 07:38:17;;;;;;;0.00;0.00;;;;;;;;;;5059261;28;20693;-72
2022/01/16 07:40:45;;;;;;;0.00;0.00;;;;;;;;;;5062817;28;20249;-71
2022/01/16 07:43:15;;;;;;;0.00;0.00;;;;;;;;;;5073014;28;20233;-73
2022/01/16 07:45:43;;;;;;;0.00;0.00;;;;;;;;;;5073349;28;20280;-74
2022/01/16 07:48:12;;;;;;;0.00;0.00;;;;;;;;;;5069369;28;20212;-72
2022/01/16 07:50:40;;;;;;;0.00;0.00;;;;;;;;;;5065425;28;20203;-73
2022/01/16 07:53:09;;;;;;;0.00;0.00;;;;;;;;;;5073047;28;20198;-73
2022/01/16 07:55:39;;;;;;;0.00;0.00;;;;;;;;;;5077640;28;20559;-73
2022/01/16 07:58:08;;;;;;;0.00;0.00;;;;;;;;;;5086472;28;20685;-72
2022/01/16 08:00:36;;;;;;;0.00;0.00;;;;;;;;;;5075403;28;20198;-73
2022/01/16 08:03:05;;;;;;;0.00;0.00;;;;;;;;;;5093651;28;20213;-75
2022/01/16 08:05:34;;;;;;;0.00;0.00;;;;;;;;;;5075081;28;20218;-76
2022/01/16 08:08:03;;;;;;;0.00;0.00;;;;;;;;;;5072946;28;20592;-72
2022/01/16 08:10:32;;;;;;;0.00;0.00;;;;;;;;;;5073081;28;20200;-72
2022/01/16 08:13:02;;;;;;;0.00;0.00;;;;;;;;;;5069248;28;20664;-73
2022/01/16 08:15:30;;;;;;;0.00;0.00;;;;;;;;;;5065248;28;20195;-72
2022/01/16 08:17:59;;;;;;;0.00;0.00;;;;;;;;;;5070613;28;20268;-74
2022/01/16 08:20:27;;;;;;;0.00;0.00;;;;;;;;;;5076768;28;20248;-73
2022/01/16 08:22:56;;;;;;;0.00;0.00;;;;;;;;;;5071626;28;20195;-73
2022/01/16 08:25:25;;;;;;;0.00;0.00;;;;;;;;;;5073081;28;20207;-72
2022/01/16 08:27:53;;;;;;;0.00;0.00;;;;;;;;;;5072975;28;20231;-72
2022/01/16 08:30:23;;;;;;;0.00;0.00;;;;;;;;;;5087747;28;20588;-72
2022/01/16 08:32:52;;;;;;;0.00;0.00;;;;;;;;;;5093040;28;20284;-71
2022/01/16 08:35:21;;;;;;;0.00;0.00;;;;;;;;;;5095217;28;20202;-73
2022/01/16 08:37:49;;;;;;;0.00;0.00;;;;;;;;;;5077527;28;20214;-72
2022/01/16 08:40:18;;;;;;;0.00;0.00;;;;;;;;;;5077731;28;20260;-74
2022/01/16 08:42:47;;;;;;;0.00;0.00;;;;;;;;;;5075008;28;20260;-73
2022/01/16 08:45:15;;;;;;;0.00;0.00;;;;;;;;;;5078236;28;20211;-73
2022/01/16 08:47:45;;;;;;;0.00;0.00;;;;;;;;;;5081919;28;20234;-73
2022/01/16 08:50:14;;;;;;;0.00;0.00;;;;;;;;;;5075963;28;20272;-74
2022/01/16 08:52:43;;;;;;;0.00;0.00;;;;;;;;;;5075468;28;20679;-72
2022/01/16 08:55:12;;;;;;;0.00;0.00;;;;;;;;;;5077140;28;20246;-73
2022/01/16 08:57:40;;;;;;;0.00;0.00;;;;;;;;;;5074662;27;20611;-74
2022/01/16 09:00:09;;;;;;;0.00;0.00;;;;;;;;;;5064755;28;20685;-74
2022/01/16 09:02:38;;;;;;;0.00;0.00;;;;;;;;;;5078300;28;20646;-73
2022/01/16 09:05:08;;;;;;;0.00;0.00;;;;;;;;;;5076363;28;20579;-76
2022/01/16 09:07:37;;;;;;;0.00;0.00;;;;;;;;;;5072396;28;20231;-75
2022/01/16 09:10:06;;;;;;;0.00;0.00;;;;;;;;;;5070727;28;20218;-74
2022/01/16 09:12:35;;;;;;;0.00;0.00;;;;;;;;;;5075272;28;20203;-73
2022/01/16 09:15:06;;;;;;;0.00;0.00;;;;;;;;;;5076299;28;20207;-73
2022/01/16 09:17:35;;;;;;;0.00;0.00;;;;;;;;;;5075875;28;20216;-74
2022/01/16 09:20:04;;;;;;;0.00;0.00;;;;;;;;;;5072112;28;20637;-73
2022/01/16 09:22:36;;;;;;;0.00;0.00;;;;;;;;;;5086831;28;20207;-75
2022/01/16 09:25:05;;;;;;;0.00;0.00;;;;;;;;;;5074353;28;20209;-72
2022/01/16 09:27:34;;;;;;;0.00;0.00;;;;;;;;;;5072650;28;20223;-72
2022/01/16 09:30:02;;;;;;;0.00;0.00;;;;;;;;;;5080841;28;20209;-73
2022/01/16 09:32:31;;;;;;;0.00;0.00;;;;;;;;;;5076117;28;20216;-72
2022/01/16 09:34:59;;;;;;;0.00;0.00;;;;;;;;;;5076969;28;20199;-74
2022/01/16 09:37:28;;;;;;;0.00;0.00;;;;;;;;;;5092253;28;20218;-72
2022/01/16 09:39:59;;;;;;;0.00;0.00;;;;;;;;;;5078785;28;20205;-75
2022/01/16 09:42:28;;;;;;;0.00;0.00;;;;;;;;;;5076044;28;20204;-72
2022/01/16 09:44:57;;;;;;;0.00;0.00;;;;;;;;;;5073541;28;20212;-76
2022/01/16 09:47:25;;;;;;;0.00;0.00;;;;;;;;;;5074871;28;20227;-75
2022/01/16 09:49:54;;;;;;;0.00;0.00;;;;;;;;;;5075296;28;20199;-72
2022/01/16 09:52:22;;;;;;;0.00;0.00;;;;;;;;;;5075985;28;20196;-74
2022/01/16 09:54:50;;;;;;;0.00;0.00;;;;;;;;;;5075122;28;20210;-73
2022/01/16 09:57:20;;;;;;;0.00;0.00;;;;;;;;;;5075655;28;20213;-72
2022/01/16 09:59:49;;;;;;;0.00;0.00;;;;;;;;;;5075605;28;20211;-75
2022/01/16 10:02:17;;;;;;;0.00;0.00;;;;;;;;;;5095605;28;20204;-73
2022/01/16 10:04:46;;;;;;;0.00;0.00;;;;;;;;;;5076350;28;20205;-73
2022/01/16 10:07:15;;;;;;;0.00;0.00;;;;;;;;;;5085020;28;20307;-74
2022/01/16 10:09:45;;;;;;;0.00;0.00;;;;;;;;;;5064606;28;20212;-72
2022/01/16 10:12:16;;;;;;;0.00;0.00;;;;;;;;;;5071485;28;20652;-76
2022/01/16 10:14:49;;;;;;;0.00;0.00;;;;;;;;;;5074388;28;20202;-74
2022/01/16 10:17:19;;;;;;;0.00;0.00;;;;;;;;;;5074805;28;20601;-73
2022/01/16 10:19:48;;;;;;;0.00;0.00;;;;;;;;;;5074213;28;20203;-73
2022/01/16 10:22:17;;;;;;;0.00;0.00;;;;;;;;;;5084754;28;20209;-73
2022/01/16 10:24:45;;;;;;;0.00;0.00;;;;;;;;;;5095229;28;20204;-72
2022/01/16 10:27:17;;;;;;;0.00;0.00;;;;;;;;;;5069061;28;20686;-73
2022/01/16 10:29:48;;;;;;;0.00;0.00;;;;;;;;;;5073823;28;20204;-73
2022/01/16 10:32:19;;;;;;;0.00;0.00;;;;;;;;;;5073341;28;20296;-72
2022/01/16 10:34:49;;;;;;;0.00;0.00;;;;;;;;;;5072462;27;20264;-76
2022/01/16 10:37:35;;;;;;;0.00;0.00;;;;;;;;;;5074207;28;20219;-77
2022/01/16 10:40:06;;;;;;;0.00;0.00;;;;;;;;;;5073971;28;20215;-77
2022/01/16 10:42:35;;;;;;;0.00;0.00;;;;;;;;;;5075182;28;20198;-75
2022/01/16 10:45:06;;;;;;;0.00;0.00;;;;;;;;;;5077027;28;20220;-75
2022/01/16 10:47:36;;;;;;;0.00;0.00;;;;;;;;;;5074602;28;20267;-75
2022/01/16 10:50:07;;;;;;;0.00;0.00;;;;;;;;;;5075779;28;20243;-76
2022/01/16 10:52:46;;;;;;;0.00;0.00;;;;;;;;;;5074755;28;20191;-73
2022/01/16 10:55:15;;;;;;;0.00;0.00;;;;;;;;;;5074039;28;20252;-76
2022/01/16 10:57:43;;;;;;;0.00;0.00;;;;;;;;;;5071939;28;20270;-77
2022/01/16 11:00:15;;;;;;;0.00;0.00;;;;;;;;;;5075134;28;20214;-74
2022/01/16 11:02:45;;;;;;;0.00;0.00;;;;;;;;;;5073835;28;20306;-73
2022/01/16 11:05:15;;;;;;;0.00;0.00;;;;;;;;;;5073357;28;20633;-75
2022/01/16 11:07:43;;;;;;;0.00;0.00;;;;;;;;;;5082072;28;20285;-73
2022/01/16 11:10:20;;;;;;;0.00;0.00;;;;;;;;;;5071466;28;20208;-75
2022/01/16 11:12:49;;;;;;;0.00;0.00;;;;;;;;;;5070202;28;20664;-76
2022/01/16 11:15:19;;;;;;;0.00;0.00;;;;;;;;;;5072463;28;20535;-77
2022/01/16 11:17:48;;;;;;;0.00;0.00;;;;;;;;;;5074216;28;20223;-76
2022/01/16 11:20:18;;;;;;;0.00;0.00;;;;;;;;;;5083016;28;20209;-76
2022/01/16 11:22:58;;;;;;;0.00;0.00;;;;;;;;;;5076312;28;20646;-75
2022/01/16 11:25:33;;;;;;;0.00;0.00;;;;;;;;;;5076258;28;20198;-77
2022/01/16 11:28:04;;;;;;;0.00;0.00;;;;;;;;;;5057775;28;20229;-74
2022/01/16 11:30:35;;;;;;;0.00;0.00;;;;;;;;;;5077241;28;20664;-73
2022/01/16 11:33:04;;;;;;;0.00;0.00;;;;;;;;;;5094431;28;20232;-73
2022/01/16 11:35:36;;;;;;;0.00;0.00;;;;;;;;;;5081428;28;20553;-74
2022/01/16 11:38:04;;;;;;;0.00;0.00;;;;;;;;;;5091495;28;20285;-78
2022/01/16 11:40:42;;;;;;;0.00;0.00;;;;;;;;;;5075094;28;20206;-76
2022/01/16 11:43:28;;;;;;;0.00;0.00;;;;;;;;;;5093392;28;20200;-73
2022/01/16 11:46:05;;;;;;;0.00;0.00;;;;;;;;;;5065258;28;20209;-77
2022/01/16 11:48:38;;;;;;;0.00;0.00;;;;;;;;;;5066809;28;20276;-74
2022/01/16 11:51:51;;;;;;;0.00;0.00;;;;;;;;;;5066783;27;20282;-73
2022/01/16 11:54:27;;;;;;;0.00;0.00;;;;;;;;;;5071085;28;20198;-73
2022/01/16 11:56:57;;;;;;;0.00;0.00;;;;;;;;;;5071937;28;20210;-73
2022/01/16 11:59:26;;;;;;;0.00;0.00;;;;;;;;;;5064277;28;20211;-73
2022/01/16 12:01:57;;;;;;;0.00;0.00;;;;;;;;;;5071404;28;20592;-77
2022/01/16 12:04:44;;;;;;;0.00;0.00;;;;;;;;;;5075953;28;20193;-72
2022/01/16 12:07:27;;;;;;;0.00;0.00;;;;;;;;;;5090545;28;20694;-74
2022/01/16 12:09:58;;;;;;;0.00;0.00;;;;;;;;;;5072096;28;20594;-75
2022/01/16 12:12:36;;;;;;;0.00;0.00;;;;;;;;;;5067254;28;20603;-76
2022/01/16 12:15:05;;;;;;;0.00;0.00;;;;;;;;;;5068544;28;20210;-76
2022/01/16 12:17:38;;;;;;;0.00;0.00;;;;;;;;;;5070436;28;20283;-73
2022/01/16 12:20:24;;;;;;;0.00;0.00;;;;;;;;;;5063197;28;20211;-74
2022/01/16 12:22:53;;;;;;;0.00;0.00;;;;;;;;;;5051853;28;20577;-75
2022/01/16 12:25:42;;;;;;;0.00;0.00;;;;;;;;;;5073724;28;20303;-76
2022/01/16 12:28:16;;;;;;;0.00;0.00;;;;;;;;;;5072490;28;20674;-75
2022/01/16 12:30:50;;;;;;;0.00;0.00;;;;;;;;;;5072522;28;20205;-76
2022/01/16 12:33:27;;;;;;;0.00;0.00;;;;;;;;;;5072290;28;20209;-73
2022/01/16 12:36:05;;;;;;;0.00;0.00;;;;;;;;;;5079490;28;20654;-76
2022/01/16 12:38:34;;;;;;;0.00;0.00;;;;;;;;;;5072819;28;20236;-75
2022/01/16 12:41:04;;;;;;;0.00;0.00;;;;;;;;;;5073440;28;20198;-75
2022/01/16 12:43:43;;;;;;;0.00;0.00;;;;;;;;;;5058166;28;20614;-72
2022/01/16 12:46:12;;;;;;;0.00;0.00;;;;;;;;;;5082219;28;20210;-72
2022/01/16 12:48:43;;;;;;;0.00;0.00;;;;;;;;;;5072260;28;20218;-75
2022/01/16 12:51:13;;;;;;;0.00;0.00;;;;;;;;;;5069561;28;20202;-75
2022/01/16 12:53:42;;;;;;;0.00;0.00;;;;;;;;;;5067986;28;20780;-73
2022/01/16 12:56:24;;;;;;;0.00;0.00;;;;;;;;;;5072115;28;20201;-77
2022/01/16 12:58:54;;;;;;;0.00;0.00;;;;;;;;;;5072047;28;20215;-75
2022/01/16 13:01:22;;;;;;;0.00;0.00;;;;;;;;;;5088525;28;20206;-74
2022/01/16 13:03:52;;;;;;;0.00;0.00;;;;;;;;;;5074700;28;20251;-73
2022/01/16 13:06:22;;;;;;;0.00;0.00;;;;;;;;;;5078241;28;20203;-73
2022/01/16 13:09:08;;;;;;;0.00;0.00;;;;;;;;;;5071773;28;20235;-77
2022/01/16 13:11:37;;;;;;;0.00;0.00;;;;;;;;;;5078208;28;20651;-73
2022/01/16 13:14:07;;;;;;;0.00;0.00;;;;;;;;;;5072943;28;20626;-77
2022/01/16 13:16:36;;;;;;;0.00;0.00;;;;;;;;;;5072846;28;20214;-74
2022/01/16 13:19:11;;;;;;;0.00;0.00;;;;;;;;;;5080756;28;20247;-76
2022/01/16 13:21:40;;;;;;;0.00;0.00;;;;;;;;;;5052884;28;20666;-75
2022/01/16 13:24:24;;;;;;;0.00;0.00;;;;;;;;;;5071701;28;20206;-74
2022/01/16 13:26:52;;;;;;;0.00;0.00;;;;;;;;;;5071202;28;20583;-75
2022/01/16 13:29:21;;;;;;;0.00;0.00;;;;;;;;;;5072875;28;20222;-73
2022/01/16 13:31:50;;;;;;;0.00;0.00;;;;;;;;;;5072259;28;20681;-75
2022/01/16 13:34:21;;;;;;;0.00;0.00;;;;;;;;;;5078813;28;20261;-75
2022/01/16 13:36:53;;;;;;;0.00;0.00;;;;;;;;;;5073201;28;20190;-74
2022/01/16 13:39:40;;;;;;;0.00;0.00;;;;;;;;;;5078595;28;20213;-73
2022/01/16 13:42:16;;;;;;;0.00;0.00;;;;;;;;;;5061857;28;20206;-74
2022/01/16 13:44:44;;;;;;;0.00;0.00;;;;;;;;;;5078169;28;20271;-73
2022/01/16 13:47:17;;;;;;;0.00;0.00;;;;;;;;;;5074642;28;20806;-74
2022/01/16 13:49:48;;;;;;;0.00;0.00;;;;;;;;;;5089180;28;20211;-73
2022/01/16 13:52:25;;;;;;;0.00;0.00;;;;;;;;;;5072691;28;20339;-75
2022/01/16 13:55:10;;;;;;;0.00;0.00;;;;;;;;;;5073172;28;20218;-73
2022/01/16 13:57:39;;;;;;;0.00;0.00;;;;;;;;;;5068186;28;20215;-72
2022/01/16 14:00:09;;;;;;;0.00;0.00;;;;;;;;;;5066666;28;20658;-73
2022/01/16 14:02:38;;;;;;;0.50;0.47;;;;;;;;;;5082812;28;20194;-74
2022/01/16 14:05:08;;;;;;;2.10;1.33;;;;;;;;;;5070431;28;20672;-75
2022/01/16 14:07:37;;;;;;;2.53;1.90;;;;;;;;;;5075752;28;20271;-76
2022/01/16 14:10:05;;;;;;;2.90;2.23;;;;;;;;;;5067671;28;20226;-73
2022/01/16 14:12:34;;;;;;;9.00;4.90;;;;;;;;;;5071697;28;20248;-74
2022/01/16 14:15:12;;;;;;;8.40;6.13;;;;;;;;;;5072665;28;20578;-73
2022/01/16 14:17:56;;;;;;;4.23;3.20;;;;;;;;;;5071805;28;20228;-75
2022/01/16 14:20:47;;;;;;;9.00;6.70;;;;;;;;;;5068716;27;20607;-74
2022/01/16 14:23:16;;;;;;;12.00;9.43;;;;;;;;;;4722325;28;10000339;-74
2022/01/16 14:25:45;;;;;;;11.70;8.20;;;;;;;;;;5071896;28;20238;-72
2022/01/16 14:28:13;;;;;;;11.13;8.60;;;;;;;;;;5074840;28;20741;-74
2022/01/16 14:30:41;;;;;;;11.73;9.10;;;;;;;;;;5070546;28;20272;-73
2022/01/16 14:33:10;;;;;;;14.83;11.50;;;;;;;;;;5070607;27;20481;-74
2022/01/16 14:35:40;;;;;;;18.67;13.50;;;;;;;;;;5069978;28;21459;-74
2022/01/16 14:38:08;;;;;;;16.33;11.13;;;;;;;;;;5068787;28;20226;-71
2022/01/16 14:40:36;;;;;;;18.03;12.83;;;;;;;;;;5066948;28;20248;-75
2022/01/16 14:43:10;;;;;;;15.53;10.30;;;;;;;;;;5070451;28;20271;-76
2022/01/16 14:45:56;;;;;;;22.53;13.83;;;;;;;;;;5064927;28;20628;-75
2022/01/16 14:48:24;;;;;;;14.03;10.20;;;;;;;;;;5070540;28;20227;-74
2022/01/16 14:50:54;;;;;;;14.07;10.03;;;;;;;;;;5071631;28;20661;-74
2022/01/16 14:53:22;;;;;;;14.87;12.23;;;;;;;;;;5057445;28;20286;-72
2022/01/16 14:55:51;;;;;;;19.23;14.13;;;;;;;;;;5069237;28;20911;-74
2022/01/16 14:58:19;;;;;;;19.73;12.63;;;;;;;;;;5069097;27;20613;-73
2022/01/16 15:00:48;;;;;;;16.17;11.93;;;;;;;;;;5078584;28;21084;-74
2022/01/16 15:03:16;;;;;;;23.77;17.07;;;;;;;;;;5059190;28;20710;-72
2022/01/16 15:05:45;;;;;;;16.13;10.97;;;;;;;;;;5069722;28;20904;-73
2022/01/16 15:08:14;;;;;;;17.30;12.90;;;;;;;;;;5069830;28;20692;-72
2022/01/16 15:10:43;;;;;;;15.70;11.33;;;;;;;;;;5068923;28;20238;-71
2022/01/16 15:13:11;;;;;;;16.77;12.53;;;;;;;;;;5068735;28;20214;-73
2022/01/16 15:15:40;;;;;;;12.73;10.50;;;;;;;;;;5068641;28;20199;-73
2022/01/16 15:18:11;;;;;;;15.93;12.00;;;;;;;;;;5069062;28;20697;-72
2022/01/16 15:20:41;;;;;;;10.63;7.90;;;;;;;;;;5050551;28;20209;-73
2022/01/16 15:23:32;;;;;;;14.00;10.10;;;;;;;;;;5065024;28;20199;-74
2022/01/16 15:26:03;;;;;;;10.50;7.53;;;;;;;;;;5069604;28;20202;-73
2022/01/16 15:28:36;;;;;;;13.90;8.40;;;;;;;;;;5067771;28;20238;-75
2022/01/16 15:31:09;;;;;;;12.63;9.77;;;;;;;;;;5069658;28;20226;-72
2022/01/16 15:33:42;;;;;;;9.53;7.63;;;;;;;;;;5072188;28;20204;-74
2022/01/16 15:36:13;;;;;;;13.37;10.63;;;;;;;;;;5068845;28;20202;-73
2022/01/16 15:38:49;;;;;;;9.90;7.73;;;;;;;;;;5065935;28;20214;-73
2022/01/16 15:41:20;;;;;;;16.33;11.77;;;;;;;;;;5071590;28;20193;-74